sensor_id;sensor_type;location;lat;lon;timestamp;temperature;humidity
13332;DHT22;6735;51.456;12.626;2023-06-26T00:00:11;19.20;78.80
13332;DHT22;6735;51.456;12.626;2023-06-26T00:02:36;19.20;78.90
13332;DHT22;6735;51.456;12.626;2023-06-26T00:05:02;19.10;78.70
13332;DHT22;6735;51.456;12.626;2023-06-26T00:07:29;19.10;78.90
13332;DHT22;6735;51.456;12.626;2023-06-26T00:09:55;19.00;78.50
13332;DHT22;6735;51.456;12.626;2023-06-26T00:12:20;19.00;78.30
13332;DHT22;6735;51.456;12.626;2023-06-26T00:14:46;19.00;78.40
13332;DHT22;6735;51.456;12.626;2023-06-26T00:17:11;18.90;78.50
13332;DHT22;6735;51.456;12.626;2023-06-26T00:19:37;18.90;78.40
13332;DHT22;6735;51.456;12.626;2023-06-26T00:22:02;18.90;78.50
13332;DHT22;6735;51.456;12.626;2023-06-26T00:24:28;18.80;78.50
13332;DHT22;6735;51.456;12.626;2023-06-26T00:26:53;18.90;78.40
13332;DHT22;6735;51.456;12.626;2023-06-26T00:29:19;18.80;78.60
13332;DHT22;6735;51.456;12.626;2023-06-26T00:31:44;18.80;78.70
13332;DHT22;6735;51.456;12.626;2023-06-26T00:34:09;18.80;78.80
13332;DHT22;6735;51.456;12.626;2023-06-26T00:36:35;18.70;78.90
13332;DHT22;6735;51.456;12.626;2023-06-26T00:39:00;18.70;79.10
13332;DHT22;6735;51.456;12.626;2023-06-26T00:41:26;18.70;79.10
13332;DHT22;6735;51.456;12.626;2023-06-26T00:43:51;18.70;79.50
13332;DHT22;6735;51.456;12.626;2023-06-26T00:46:17;18.70;79.80
13332;DHT22;6735;51.456;12.626;2023-06-26T00:48:44;18.70;79.90
13332;DHT22;6735;51.456;12.626;2023-06-26T00:51:11;18.70;80.00
13332;DHT22;6735;51.456;12.626;2023-06-26T00:53:37;18.60;80.30
13332;DHT22;6735;51.456;12.626;2023-06-26T00:56:03;18.60;80.50
13332;DHT22;6735;51.456;12.626;2023-06-26T00:58:28;18.60;80.60
13332;DHT22;6735;51.456;12.626;2023-06-26T01:00:54;18.60;80.40
13332;DHT22;6735;51.456;12.626;2023-06-26T01:03:21;18.60;80.60
13332;DHT22;6735;51.456;12.626;2023-06-26T01:05:47;18.50;80.60
13332;DHT22;6735;51.456;12.626;2023-06-26T01:08:15;18.60;80.50
13332;DHT22;6735;51.456;12.626;2023-06-26T01:10:41;18.50;80.60
13332;DHT22;6735;51.456;12.626;2023-06-26T01:13:08;18.50;80.60
13332;DHT22;6735;51.456;12.626;2023-06-26T01:15:33;18.50;80.60
13332;DHT22;6735;51.456;12.626;2023-06-26T01:17:59;18.50;80.60
13332;DHT22;6735;51.456;12.626;2023-06-26T01:20:30;18.50;80.70
13332;DHT22;6735;51.456;12.626;2023-06-26T01:23:29;18.40;80.80
13332;DHT22;6735;51.456;12.626;2023-06-26T01:28:34;18.30;81.10
13332;DHT22;6735;51.456;12.626;2023-06-26T01:31:02;18.30;81.20
13332;DHT22;6735;51.456;12.626;2023-06-26T01:33:28;18.20;81.40
13332;DHT22;6735;51.456;12.626;2023-06-26T01:35:54;18.20;81.50
13332;DHT22;6735;51.456;12.626;2023-06-26T01:38:21;18.20;81.50
13332;DHT22;6735;51.456;12.626;2023-06-26T01:40:48;18.20;81.70
13332;DHT22;6735;51.456;12.626;2023-06-26T01:43:35;18.20;81.80
13332;DHT22;6735;51.456;12.626;2023-06-26T01:46:09;18.20;81.60
13332;DHT22;6735;51.456;12.626;2023-06-26T01:48:50;18.10;81.70
13332;DHT22;6735;51.456;12.626;2023-06-26T01:51:23;18.10;81.70
13332;DHT22;6735;51.456;12.626;2023-06-26T01:53:53;18.10;81.60
13332;DHT22;6735;51.456;12.626;2023-06-26T01:56:23;18.10;81.60
13332;DHT22;6735;51.456;12.626;2023-06-26T01:58:50;18.10;81.70
13332;DHT22;6735;51.456;12.626;2023-06-26T02:01:20;18.10;81.50
13332;DHT22;6735;51.456;12.626;2023-06-26T02:03:45;18.00;81.40
13332;DHT22;6735;51.456;12.626;2023-06-26T02:06:11;18.00;81.40
13332;DHT22;6735;51.456;12.626;2023-06-26T02:08:36;18.00;81.70
13332;DHT22;6735;51.456;12.626;2023-06-26T02:11:02;17.90;81.50
13332;DHT22;6735;51.456;12.626;2023-06-26T02:13:27;17.90;81.60
13332;DHT22;6735;51.456;12.626;2023-06-26T02:15:53;17.90;81.40
13332;DHT22;6735;51.456;12.626;2023-06-26T02:18:18;17.90;81.20
13332;DHT22;6735;51.456;12.626;2023-06-26T02:20:44;17.90;81.50
13332;DHT22;6735;51.456;12.626;2023-06-26T02:23:09;17.80;81.50
13332;DHT22;6735;51.456;12.626;2023-06-26T02:25:35;17.80;81.40
13332;DHT22;6735;51.456;12.626;2023-06-26T02:28:00;17.80;81.60
13332;DHT22;6735;51.456;12.626;2023-06-26T02:30:26;17.80;81.80
13332;DHT22;6735;51.456;12.626;2023-06-26T02:32:51;17.80;81.80
13332;DHT22;6735;51.456;12.626;2023-06-26T02:35:17;17.70;82.10
13332;DHT22;6735;51.456;12.626;2023-06-26T02:37:42;17.70;82.00
13332;DHT22;6735;51.456;12.626;2023-06-26T02:40:08;17.70;82.10
13332;DHT22;6735;51.456;12.626;2023-06-26T02:42:35;17.70;81.90
13332;DHT22;6735;51.456;12.626;2023-06-26T02:45:00;17.70;81.90
13332;DHT22;6735;51.456;12.626;2023-06-26T02:47:26;17.70;81.80
13332;DHT22;6735;51.456;12.626;2023-06-26T02:49:51;17.70;81.80
13332;DHT22;6735;51.456;12.626;2023-06-26T02:52:17;17.70;81.70
13332;DHT22;6735;51.456;12.626;2023-06-26T02:54:42;17.70;81.50
13332;DHT22;6735;51.456;12.626;2023-06-26T02:57:07;17.70;81.70
13332;DHT22;6735;51.456;12.626;2023-06-26T02:59:33;17.70;81.70
13332;DHT22;6735;51.456;12.626;2023-06-26T03:01:59;17.70;81.70
13332;DHT22;6735;51.456;12.626;2023-06-26T03:04:24;17.70;81.80
13332;DHT22;6735;51.456;12.626;2023-06-26T03:06:50;17.70;82.00
13332;DHT22;6735;51.456;12.626;2023-06-26T03:09:15;17.70;82.00
13332;DHT22;6735;51.456;12.626;2023-06-26T03:11:42;17.60;82.30
13332;DHT22;6735;51.456;12.626;2023-06-26T03:14:07;17.60;82.20
13332;DHT22;6735;51.456;12.626;2023-06-26T03:16:33;17.60;82.20
13332;DHT22;6735;51.456;12.626;2023-06-26T03:18:58;17.70;82.20
13332;DHT22;6735;51.456;12.626;2023-06-26T03:21:24;17.60;82.20
13332;DHT22;6735;51.456;12.626;2023-06-26T03:23:49;17.60;82.40
13332;DHT22;6735;51.456;12.626;2023-06-26T03:26:14;17.60;82.60
13332;DHT22;6735;51.456;12.626;2023-06-26T03:28:40;17.60;82.40
13332;DHT22;6735;51.456;12.626;2023-06-26T03:31:07;17.60;82.60
13332;DHT22;6735;51.456;12.626;2023-06-26T03:33:33;17.60;82.70
13332;DHT22;6735;51.456;12.626;2023-06-26T03:35:58;17.60;82.30
13332;DHT22;6735;51.456;12.626;2023-06-26T03:38:24;17.70;82.40
13332;DHT22;6735;51.456;12.626;2023-06-26T03:40:51;17.70;82.50
13332;DHT22;6735;51.456;12.626;2023-06-26T03:43:16;17.70;82.30
13332;DHT22;6735;51.456;12.626;2023-06-26T03:45:42;17.80;82.40
13332;DHT22;6735;51.456;12.626;2023-06-26T03:48:07;17.80;82.30
13332;DHT22;6735;51.456;12.626;2023-06-26T03:50:33;17.70;82.20
13332;DHT22;6735;51.456;12.626;2023-06-26T03:52:59;17.80;82.20
13332;DHT22;6735;51.456;12.626;2023-06-26T03:55:24;17.90;82.10
13332;DHT22;6735;51.456;12.626;2023-06-26T03:57:50;17.90;82.10
13332;DHT22;6735;51.456;12.626;2023-06-26T04:00:16;17.90;82.10
13332;DHT22;6735;51.456;12.626;2023-06-26T04:02:41;18.00;81.90
13332;DHT22;6735;51.456;12.626;2023-06-26T04:05:07;18.00;81.80
13332;DHT22;6735;51.456;12.626;2023-06-26T04:07:32;18.10;81.70
13332;DHT22;6735;51.456;12.626;2023-06-26T04:09:58;18.20;81.60
13332;DHT22;6735;51.456;12.626;2023-06-26T04:12:23;18.20;81.50
13332;DHT22;6735;51.456;12.626;2023-06-26T04:14:49;18.20;81.20
13332;DHT22;6735;51.456;12.626;2023-06-26T04:17:14;18.30;81.20
13332;DHT22;6735;51.456;12.626;2023-06-26T04:19:40;18.40;80.80
13332;DHT22;6735;51.456;12.626;2023-06-26T04:22:05;18.40;80.60
13332;DHT22;6735;51.456;12.626;2023-06-26T04:24:31;18.50;80.60
13332;DHT22;6735;51.456;12.626;2023-06-26T04:26:56;18.60;80.30
13332;DHT22;6735;51.456;12.626;2023-06-26T04:29:22;18.70;80.20
13332;DHT22;6735;51.456;12.626;2023-06-26T04:31:51;18.70;80.00
13332;DHT22;6735;51.456;12.626;2023-06-26T04:34:16;18.80;79.70
13332;DHT22;6735;51.456;12.626;2023-06-26T04:36:42;18.90;79.30
13332;DHT22;6735;51.456;12.626;2023-06-26T04:39:13;19.10;78.80
13332;DHT22;6735;51.456;12.626;2023-06-26T04:41:40;19.10;78.40
13332;DHT22;6735;51.456;12.626;2023-06-26T04:44:05;19.20;78.60
13332;DHT22;6735;51.456;12.626;2023-06-26T04:46:31;19.20;78.60
13332;DHT22;6735;51.456;12.626;2023-06-26T04:48:56;19.30;78.40
13332;DHT22;6735;51.456;12.626;2023-06-26T04:51:24;19.30;78.00
13332;DHT22;6735;51.456;12.626;2023-06-26T04:53:50;19.50;77.90
13332;DHT22;6735;51.456;12.626;2023-06-26T04:56:15;19.90;77.10
13332;DHT22;6735;51.456;12.626;2023-06-26T04:58:40;20.80;74.50
13332;DHT22;6735;51.456;12.626;2023-06-26T05:01:06;22.10;70.50
13332;DHT22;6735;51.456;12.626;2023-06-26T05:03:32;23.60;65.60
13332;DHT22;6735;51.456;12.626;2023-06-26T05:05:58;24.90;61.50
13332;DHT22;6735;51.456;12.626;2023-06-26T05:08:24;26.00;58.30
13332;DHT22;6735;51.456;12.626;2023-06-26T05:10:51;26.90;54.80
13332;DHT22;6735;51.456;12.626;2023-06-26T05:13:19;27.70;54.30
13332;DHT22;6735;51.456;12.626;2023-06-26T05:15:46;28.30;51.50
13332;DHT22;6735;51.456;12.626;2023-06-26T05:18:12;28.80;49.50
13332;DHT22;6735;51.456;12.626;2023-06-26T05:20:38;29.10;48.90
13332;DHT22;6735;51.456;12.626;2023-06-26T05:23:04;29.60;47.40
13332;DHT22;6735;51.456;12.626;2023-06-26T05:25:31;29.80;46.80
13332;DHT22;6735;51.456;12.626;2023-06-26T05:27:57;30.10;46.90
13332;DHT22;6735;51.456;12.626;2023-06-26T05:30:26;30.70;45.60
13332;DHT22;6735;51.456;12.626;2023-06-26T05:32:53;31.00;44.30
13332;DHT22;6735;51.456;12.626;2023-06-26T05:35:22;31.10;44.90
13332;DHT22;6735;51.456;12.626;2023-06-26T05:37:49;31.10;44.90
13332;DHT22;6735;51.456;12.626;2023-06-26T05:40:18;31.20;43.80
13332;DHT22;6735;51.456;12.626;2023-06-26T05:42:44;31.40;43.70
13332;DHT22;6735;51.456;12.626;2023-06-26T05:45:10;31.60;43.30
13332;DHT22;6735;51.456;12.626;2023-06-26T05:47:36;31.50;42.40
13332;DHT22;6735;51.456;12.626;2023-06-26T05:50:02;31.50;42.80
13332;DHT22;6735;51.456;12.626;2023-06-26T05:52:28;31.70;43.30
13332;DHT22;6735;51.456;12.626;2023-06-26T05:54:54;32.00;42.70
13332;DHT22;6735;51.456;12.626;2023-06-26T05:57:20;32.00;42.00
13332;DHT22;6735;51.456;12.626;2023-06-26T05:59:46;32.20;42.30
13332;DHT22;6735;51.456;12.626;2023-06-26T06:02:12;32.20;41.90
13332;DHT22;6735;51.456;12.626;2023-06-26T06:04:38;32.50;41.50
13332;DHT22;6735;51.456;12.626;2023-06-26T06:07:04;32.50;41.20
13332;DHT22;6735;51.456;12.626;2023-06-26T06:09:29;32.60;41.40
13332;DHT22;6735;51.456;12.626;2023-06-26T06:11:55;33.10;41.00
13332;DHT22;6735;51.456;12.626;2023-06-26T06:14:20;32.90;41.30
13332;DHT22;6735;51.456;12.626;2023-06-26T06:16:46;32.90;40.90
13332;DHT22;6735;51.456;12.626;2023-06-26T06:19:11;32.80;40.40
13332;DHT22;6735;51.456;12.626;2023-06-26T06:21:39;32.30;40.80
13332;DHT22;6735;51.456;12.626;2023-06-26T06:24:04;32.10;40.80
13332;DHT22;6735;51.456;12.626;2023-06-26T06:26:30;31.90;40.00
13332;DHT22;6735;51.456;12.626;2023-06-26T06:28:55;31.80;39.60
13332;DHT22;6735;51.456;12.626;2023-06-26T06:31:21;32.20;39.40
13332;DHT22;6735;51.456;12.626;2023-06-26T06:33:46;31.90;38.80
13332;DHT22;6735;51.456;12.626;2023-06-26T06:36:12;32.00;39.00
13332;DHT22;6735;51.456;12.626;2023-06-26T06:38:37;31.80;39.00
13332;DHT22;6735;51.456;12.626;2023-06-26T06:41:03;31.90;39.00
13332;DHT22;6735;51.456;12.626;2023-06-26T06:43:28;31.20;40.00
13332;DHT22;6735;51.456;12.626;2023-06-26T06:45:53;31.50;39.90
13332;DHT22;6735;51.456;12.626;2023-06-26T06:48:19;31.30;39.70
13332;DHT22;6735;51.456;12.626;2023-06-26T06:50:44;31.00;40.20
13332;DHT22;6735;51.456;12.626;2023-06-26T06:53:10;30.90;40.00
13332;DHT22;6735;51.456;12.626;2023-06-26T06:55:35;30.90;39.60
13332;DHT22;6735;51.456;12.626;2023-06-26T06:58:01;30.50;40.70
13332;DHT22;6735;51.456;12.626;2023-06-26T07:00:27;30.50;41.30
13332;DHT22;6735;51.456;12.626;2023-06-26T07:02:53;30.20;42.20
13332;DHT22;6735;51.456;12.626;2023-06-26T07:05:18;30.70;41.00
13332;DHT22;6735;51.456;12.626;2023-06-26T07:07:43;31.00;40.60
13332;DHT22;6735;51.456;12.626;2023-06-26T07:10:11;30.90;41.20
13332;DHT22;6735;51.456;12.626;2023-06-26T07:12:37;30.70;40.70
13332;DHT22;6735;51.456;12.626;2023-06-26T07:15:03;30.40;41.80
13332;DHT22;6735;51.456;12.626;2023-06-26T07:17:30;30.50;41.10
13332;DHT22;6735;51.456;12.626;2023-06-26T07:19:56;30.60;42.20
13332;DHT22;6735;51.456;12.626;2023-06-26T07:22:22;30.30;42.90
13332;DHT22;6735;51.456;12.626;2023-06-26T07:24:48;30.30;42.30
13332;DHT22;6735;51.456;12.626;2023-06-26T07:27:14;30.00;42.40
13332;DHT22;6735;51.456;12.626;2023-06-26T07:29:41;30.20;43.20
13332;DHT22;6735;51.456;12.626;2023-06-26T07:32:06;30.00;42.90
13332;DHT22;6735;51.456;12.626;2023-06-26T07:34:32;30.00;43.40
13332;DHT22;6735;51.456;12.626;2023-06-26T07:36:58;30.20;43.40
13332;DHT22;6735;51.456;12.626;2023-06-26T07:39:23;30.20;43.30
13332;DHT22;6735;51.456;12.626;2023-06-26T07:41:49;30.10;42.80
13332;DHT22;6735;51.456;12.626;2023-06-26T07:44:14;30.20;43.50
13332;DHT22;6735;51.456;12.626;2023-06-26T07:46:39;30.40;43.40
13332;DHT22;6735;51.456;12.626;2023-06-26T07:49:05;30.50;43.00
13332;DHT22;6735;51.456;12.626;2023-06-26T07:51:30;30.40;43.80
13332;DHT22;6735;51.456;12.626;2023-06-26T07:53:56;30.70;42.20
13332;DHT22;6735;51.456;12.626;2023-06-26T07:56:21;30.80;42.50
13332;DHT22;6735;51.456;12.626;2023-06-26T07:58:47;30.90;43.00
13332;DHT22;6735;51.456;12.626;2023-06-26T08:01:12;31.10;42.70
13332;DHT22;6735;51.456;12.626;2023-06-26T08:03:38;31.20;42.00
13332;DHT22;6735;51.456;12.626;2023-06-26T08:06:03;31.40;41.40
13332;DHT22;6735;51.456;12.626;2023-06-26T08:08:29;31.60;41.20
13332;DHT22;6735;51.456;12.626;2023-06-26T08:10:54;31.40;40.70
13332;DHT22;6735;51.456;12.626;2023-06-26T08:13:20;31.50;41.10
13332;DHT22;6735;51.456;12.626;2023-06-26T08:15:46;31.60;40.00
13332;DHT22;6735;51.456;12.626;2023-06-26T08:18:12;31.70;39.80
13332;DHT22;6735;51.456;12.626;2023-06-26T08:20:37;31.50;40.70
13332;DHT22;6735;51.456;12.626;2023-06-26T08:23:04;31.60;40.20
13332;DHT22;6735;51.456;12.626;2023-06-26T08:25:29;31.90;39.00
13332;DHT22;6735;51.456;12.626;2023-06-26T08:27:55;31.90;39.40
13332;DHT22;6735;51.456;12.626;2023-06-26T08:30:21;32.00;39.60
13332;DHT22;6735;51.456;12.626;2023-06-26T08:32:46;32.10;39.00
13332;DHT22;6735;51.456;12.626;2023-06-26T08:35:11;32.20;39.60
13332;DHT22;6735;51.456;12.626;2023-06-26T08:37:37;32.30;39.10
13332;DHT22;6735;51.456;12.626;2023-06-26T08:40:03;32.30;39.00
13332;DHT22;6735;51.456;12.626;2023-06-26T08:42:29;32.60;38.60
13332;DHT22;6735;51.456;12.626;2023-06-26T08:44:55;32.80;38.70
13332;DHT22;6735;51.456;12.626;2023-06-26T08:47:21;32.70;38.50
13332;DHT22;6735;51.456;12.626;2023-06-26T08:49:56;32.70;38.10
13332;DHT22;6735;51.456;12.626;2023-06-26T08:52:31;32.70;38.90
13332;DHT22;6735;51.456;12.626;2023-06-26T08:54:59;32.60;38.40
13332;DHT22;6735;51.456;12.626;2023-06-26T08:57:28;32.70;38.20
13332;DHT22;6735;51.456;12.626;2023-06-26T08:59:56;32.60;38.60
13332;DHT22;6735;51.456;12.626;2023-06-26T09:02:22;32.70;38.10
13332;DHT22;6735;51.456;12.626;2023-06-26T09:04:48;32.80;38.10
13332;DHT22;6735;51.456;12.626;2023-06-26T09:07:14;33.00;37.90
13332;DHT22;6735;51.456;12.626;2023-06-26T09:09:40;33.00;38.80
13332;DHT22;6735;51.456;12.626;2023-06-26T09:12:06;33.10;38.00
13332;DHT22;6735;51.456;12.626;2023-06-26T09:14:31;33.10;37.60
13332;DHT22;6735;51.456;12.626;2023-06-26T09:16:57;33.20;38.00
13332;DHT22;6735;51.456;12.626;2023-06-26T09:19:22;33.50;37.10
13332;DHT22;6735;51.456;12.626;2023-06-26T09:21:50;33.70;36.90
13332;DHT22;6735;51.456;12.626;2023-06-26T09:24:16;33.60;36.90
13332;DHT22;6735;51.456;12.626;2023-06-26T09:26:42;33.70;37.20
13332;DHT22;6735;51.456;12.626;2023-06-26T09:29:09;33.80;37.20
13332;DHT22;6735;51.456;12.626;2023-06-26T09:31:39;33.90;36.10
13332;DHT22;6735;51.456;12.626;2023-06-26T09:34:05;34.00;36.50
13332;DHT22;6735;51.456;12.626;2023-06-26T09:36:32;34.20;35.90
13332;DHT22;6735;51.456;12.626;2023-06-26T09:39:02;34.70;34.40
13332;DHT22;6735;51.456;12.626;2023-06-26T09:41:27;35.00;34.80
13332;DHT22;6735;51.456;12.626;2023-06-26T09:43:53;35.20;34.60
13332;DHT22;6735;51.456;12.626;2023-06-26T09:46:27;35.20;33.50
13332;DHT22;6735;51.456;12.626;2023-06-26T09:49:04;35.20;32.10
13332;DHT22;6735;51.456;12.626;2023-06-26T09:51:33;35.50;32.50
13332;DHT22;6735;51.456;12.626;2023-06-26T09:54:00;35.60;31.50
13332;DHT22;6735;51.456;12.626;2023-06-26T09:56:27;35.60;31.00
13332;DHT22;6735;51.456;12.626;2023-06-26T09:58:58;35.40;31.30
13332;DHT22;6735;51.456;12.626;2023-06-26T10:01:24;35.40;31.50
13332;DHT22;6735;51.456;12.626;2023-06-26T10:03:50;35.50;31.00
13332;DHT22;6735;51.456;12.626;2023-06-26T10:06:19;35.50;30.10
13332;DHT22;6735;51.456;12.626;2023-06-26T10:08:46;35.90;29.90
13332;DHT22;6735;51.456;12.626;2023-06-26T10:11:14;35.90;30.00
13332;DHT22;6735;51.456;12.626;2023-06-26T10:13:43;35.90;30.70
13332;DHT22;6735;51.456;12.626;2023-06-26T10:16:12;35.80;29.80
13332;DHT22;6735;51.456;12.626;2023-06-26T10:18:39;35.70;30.00
13332;DHT22;6735;51.456;12.626;2023-06-26T10:21:06;35.40;30.80
13332;DHT22;6735;51.456;12.626;2023-06-26T10:23:34;35.40;30.90
13332;DHT22;6735;51.456;12.626;2023-06-26T10:26:01;35.70;30.70
13332;DHT22;6735;51.456;12.626;2023-06-26T10:28:28;36.00;30.50
13332;DHT22;6735;51.456;12.626;2023-06-26T10:30:55;36.20;29.80
13332;DHT22;6735;51.456;12.626;2023-06-26T10:33:21;35.90;30.00
13332;DHT22;6735;51.456;12.626;2023-06-26T10:35:47;36.00;30.90
13332;DHT22;6735;51.456;12.626;2023-06-26T10:38:13;36.20;29.50
13332;DHT22;6735;51.456;12.626;2023-06-26T10:40:46;36.30;28.80
13332;DHT22;6735;51.456;12.626;2023-06-26T10:43:14;36.20;28.80
13332;DHT22;6735;51.456;12.626;2023-06-26T10:45:47;36.10;29.40
13332;DHT22;6735;51.456;12.626;2023-06-26T10:48:17;35.70;29.90
13332;DHT22;6735;51.456;12.626;2023-06-26T10:50:43;35.70;29.20
13332;DHT22;6735;51.456;12.626;2023-06-26T10:53:11;35.80;29.60
13332;DHT22;6735;51.456;12.626;2023-06-26T10:55:41;35.70;29.80
13332;DHT22;6735;51.456;12.626;2023-06-26T10:58:33;35.40;29.90
13332;DHT22;6735;51.456;12.626;2023-06-26T11:03:44;35.20;30.20
13332;DHT22;6735;51.456;12.626;2023-06-26T11:06:14;35.60;30.10
13332;DHT22;6735;51.456;12.626;2023-06-26T11:08:53;35.80;29.60
13332;DHT22;6735;51.456;12.626;2023-06-26T11:11:20;36.10;29.90
13332;DHT22;6735;51.456;12.626;2023-06-26T11:13:46;36.30;29.20
13332;DHT22;6735;51.456;12.626;2023-06-26T11:16:13;35.80;29.40
13332;DHT22;6735;51.456;12.626;2023-06-26T11:18:40;35.70;29.60
13332;DHT22;6735;51.456;12.626;2023-06-26T11:21:07;35.80;28.90
13332;DHT22;6735;51.456;12.626;2023-06-26T11:23:35;35.70;29.60
13332;DHT22;6735;51.456;12.626;2023-06-26T11:26:18;35.50;28.90
13332;DHT22;6735;51.456;12.626;2023-06-26T11:28:51;35.30;29.20
13332;DHT22;6735;51.456;12.626;2023-06-26T11:31:28;35.30;29.80
13332;DHT22;6735;51.456;12.626;2023-06-26T11:34:01;34.80;30.60
13332;DHT22;6735;51.456;12.626;2023-06-26T11:36:27;34.50;29.70
13332;DHT22;6735;51.456;12.626;2023-06-26T11:38:57;34.80;30.50
13332;DHT22;6735;51.456;12.626;2023-06-26T11:41:27;35.10;30.00
13332;DHT22;6735;51.456;12.626;2023-06-26T11:43:53;35.40;29.10
13332;DHT22;6735;51.456;12.626;2023-06-26T11:46:20;35.60;29.70
13332;DHT22;6735;51.456;12.626;2023-06-26T11:48:46;35.50;29.30
13332;DHT22;6735;51.456;12.626;2023-06-26T11:51:15;35.00;29.30
13332;DHT22;6735;51.456;12.626;2023-06-26T11:53:42;34.80;30.70
13332;DHT22;6735;51.456;12.626;2023-06-26T11:56:12;34.90;30.20
13332;DHT22;6735;51.456;12.626;2023-06-26T11:58:58;35.20;29.70
13332;DHT22;6735;51.456;12.626;2023-06-26T12:01:32;35.90;29.30
13332;DHT22;6735;51.456;12.626;2023-06-26T12:04:00;36.30;29.70
13332;DHT22;6735;51.456;12.626;2023-06-26T12:06:34;36.30;29.20
13332;DHT22;6735;51.456;12.626;2023-06-26T12:09:01;36.30;28.70
13332;DHT22;6735;51.456;12.626;2023-06-26T12:11:29;36.20;28.60
13332;DHT22;6735;51.456;12.626;2023-06-26T12:13:55;36.20;28.60
13332;DHT22;6735;51.456;12.626;2023-06-26T12:16:21;36.50;28.10
13332;DHT22;6735;51.456;12.626;2023-06-26T12:18:47;36.70;29.10
13332;DHT22;6735;51.456;12.626;2023-06-26T12:24:04;36.60;27.70
13332;DHT22;6735;51.456;12.626;2023-06-26T12:26:30;36.60;28.20
13332;DHT22;6735;51.456;12.626;2023-06-26T12:29:10;36.40;28.00
13332;DHT22;6735;51.456;12.626;2023-06-26T12:31:40;36.50;28.30
13332;DHT22;6735;51.456;12.626;2023-06-26T12:34:12;36.50;27.80
13332;DHT22;6735;51.456;12.626;2023-06-26T12:36:47;36.10;28.50
13332;DHT22;6735;51.456;12.626;2023-06-26T12:39:16;35.90;28.40
13332;DHT22;6735;51.456;12.626;2023-06-26T12:44:18;36.00;28.50
13332;DHT22;6735;51.456;12.626;2023-06-26T12:46:46;36.00;29.20
13332;DHT22;6735;51.456;12.626;2023-06-26T12:49:12;35.90;28.40
13332;DHT22;6735;51.456;12.626;2023-06-26T12:51:38;35.90;29.60
13332;DHT22;6735;51.456;12.626;2023-06-26T12:54:05;35.80;29.20
13332;DHT22;6735;51.456;12.626;2023-06-26T12:56:30;35.60;29.60
13332;DHT22;6735;51.456;12.626;2023-06-26T12:58:56;35.70;29.30
13332;DHT22;6735;51.456;12.626;2023-06-26T13:01:21;35.70;28.50
13332;DHT22;6735;51.456;12.626;2023-06-26T13:03:49;35.70;28.80
13332;DHT22;6735;51.456;12.626;2023-06-26T13:06:16;35.50;28.50
13332;DHT22;6735;51.456;12.626;2023-06-26T13:08:41;35.20;29.30
13332;DHT22;6735;51.456;12.626;2023-06-26T13:11:08;35.10;29.80
13332;DHT22;6735;51.456;12.626;2023-06-26T13:13:34;35.10;30.00
13332;DHT22;6735;51.456;12.626;2023-06-26T13:15:59;35.10;29.10
13332;DHT22;6735;51.456;12.626;2023-06-26T13:18:25;35.30;29.70
13332;DHT22;6735;51.456;12.626;2023-06-26T13:20:51;35.10;29.70
13332;DHT22;6735;51.456;12.626;2023-06-26T13:23:16;35.10;29.50
13332;DHT22;6735;51.456;12.626;2023-06-26T13:25:43;34.70;29.40
13332;DHT22;6735;51.456;12.626;2023-06-26T13:28:09;34.60;29.70
13332;DHT22;6735;51.456;12.626;2023-06-26T13:30:35;34.70;30.50
13332;DHT22;6735;51.456;12.626;2023-06-26T13:33:00;34.70;30.70
13332;DHT22;6735;51.456;12.626;2023-06-26T13:35:26;34.60;30.60
13332;DHT22;6735;51.456;12.626;2023-06-26T13:37:51;34.70;30.50
13332;DHT22;6735;51.456;12.626;2023-06-26T13:40:17;34.90;29.40
13332;DHT22;6735;51.456;12.626;2023-06-26T13:42:42;34.90;29.90
13332;DHT22;6735;51.456;12.626;2023-06-26T13:45:09;34.90;30.20
13332;DHT22;6735;51.456;12.626;2023-06-26T13:47:35;35.00;30.60
13332;DHT22;6735;51.456;12.626;2023-06-26T13:50:03;35.10;29.70
13332;DHT22;6735;51.456;12.626;2023-06-26T13:52:29;35.10;29.40
13332;DHT22;6735;51.456;12.626;2023-06-26T13:54:54;35.30;28.20
13332;DHT22;6735;51.456;12.626;2023-06-26T13:57:20;35.50;29.30
13332;DHT22;6735;51.456;12.626;2023-06-26T13:59:47;35.60;28.50
13332;DHT22;6735;51.456;12.626;2023-06-26T14:02:13;35.50;28.70
13332;DHT22;6735;51.456;12.626;2023-06-26T14:04:38;35.20;28.30
13332;DHT22;6735;51.456;12.626;2023-06-26T14:07:05;35.30;28.60
13332;DHT22;6735;51.456;12.626;2023-06-26T14:09:30;35.00;30.00
13332;DHT22;6735;51.456;12.626;2023-06-26T14:11:56;34.90;29.80
13332;DHT22;6735;51.456;12.626;2023-06-26T14:14:21;34.90;31.10
13332;DHT22;6735;51.456;12.626;2023-06-26T14:16:47;34.60;30.00
13332;DHT22;6735;51.456;12.626;2023-06-26T14:19:14;33.20;37.40
13332;DHT22;6735;51.456;12.626;2023-06-26T14:21:41;32.20;40.40
13332;DHT22;6735;51.456;12.626;2023-06-26T14:24:07;31.30;43.50
13332;DHT22;6735;51.456;12.626;2023-06-26T14:26:32;30.00;45.10
13332;DHT22;6735;51.456;12.626;2023-06-26T14:28:59;29.20;48.00
13332;DHT22;6735;51.456;12.626;2023-06-26T14:31:25;28.70;51.90
13332;DHT22;6735;51.456;12.626;2023-06-26T14:33:51;27.80;56.20
13332;DHT22;6735;51.456;12.626;2023-06-26T14:36:16;27.00;60.40
13332;DHT22;6735;51.456;12.626;2023-06-26T14:38:42;26.30;63.90
13332;DHT22;6735;51.456;12.626;2023-06-26T14:41:07;26.00;66.40
13332;DHT22;6735;51.456;12.626;2023-06-26T14:43:32;25.60;69.20
13332;DHT22;6735;51.456;12.626;2023-06-26T14:45:58;25.70;67.70
13332;DHT22;6735;51.456;12.626;2023-06-26T14:48:23;25.40;70.30
13332;DHT22;6735;51.456;12.626;2023-06-26T14:50:49;25.50;69.60
13332;DHT22;6735;51.456;12.626;2023-06-26T14:53:14;25.80;71.10
13332;DHT22;6735;51.456;12.626;2023-06-26T14:55:40;26.00;69.10
13332;DHT22;6735;51.456;12.626;2023-06-26T14:58:05;26.30;68.80
13332;DHT22;6735;51.456;12.626;2023-06-26T15:00:31;26.50;67.40
13332;DHT22;6735;51.456;12.626;2023-06-26T15:02:56;26.30;68.10
13332;DHT22;6735;51.456;12.626;2023-06-26T15:05:23;26.00;67.90
13332;DHT22;6735;51.456;12.626;2023-06-26T15:07:49;26.00;66.60
13332;DHT22;6735;51.456;12.626;2023-06-26T15:10:15;26.30;65.90
13332;DHT22;6735;51.456;12.626;2023-06-26T15:12:41;26.50;64.00
13332;DHT22;6735;51.456;12.626;2023-06-26T15:15:07;26.60;63.70
13332;DHT22;6735;51.456;12.626;2023-06-26T15:17:33;26.80;62.50
13332;DHT22;6735;51.456;12.626;2023-06-26T15:19:59;26.60;60.60
13332;DHT22;6735;51.456;12.626;2023-06-26T15:22:27;26.60;60.10
13332;DHT22;6735;51.456;12.626;2023-06-26T15:24:53;26.60;60.00
13332;DHT22;6735;51.456;12.626;2023-06-26T15:27:18;26.70;59.30
13332;DHT22;6735;51.456;12.626;2023-06-26T15:29:44;26.70;59.60
13332;DHT22;6735;51.456;12.626;2023-06-26T15:32:09;26.90;59.40
13332;DHT22;6735;51.456;12.626;2023-06-26T15:34:35;27.10;58.80
13332;DHT22;6735;51.456;12.626;2023-06-26T15:37:00;27.00;57.60